Time;durP1;ratioP1;P1;durP2;ratioP2;P2;SDS_P1;SDS_P2;PMS_P1;PMS_P2;Temp;Humidity;BMP_temperature;BMP_pressure;BME280_temperature;BME280_humidity;BME280_pressure;Samples;Min_cycle;Max_cycle;Signal;HPM_P1;HPM_P2
2022/06/17 00:01:46;;;;;;;2.58;1.10;;;;;;;17.58;48.26;99130.95;1669367;86;21143;-74
2022/06/17 00:04:13;;;;;;;2.08;1.05;;;;;;;17.61;48.16;99124.63;1670220;86;20936;-73
2022/06/17 00:06:49;;;;;;;2.27;1.35;;;;;;;17.64;48.11;99132.25;1670165;85;20984;-72
2022/06/17 00:09:19;;;;;;;1.20;1.15;;;;;;;17.67;48.05;99126.42;1669029;84;21033;-74
2022/06/17 00:11:46;;;;;;;2.75;1.37;;;;;;;17.71;47.93;99128.12;1669880;84;21034;-73
2022/06/17 00:14:17;;;;;;;1.40;1.00;;;;;;;17.74;47.85;99123.64;1655861;86;21242;-74
2022/06/17 00:16:44;;;;;;;1.87;1.47;;;;;;;17.76;47.83;99121.55;1628044;87;20911;-74
2022/06/17 00:19:11;;;;;;;2.60;1.10;;;;;;;17.77;47.77;99122.69;1687306;85;20947;-75
2022/06/17 00:21:42;;;;;;;1.47;1.10;;;;;;;17.79;47.66;99121.09;1627789;88;20932;-75
2022/06/17 00:24:22;;;;;;;1.75;1.40;;;;;;;17.80;47.58;99118.72;1687485;85;20954;-74
2022/06/17 00:26:48;;;;;;;1.65;1.10;;;;;;;17.80;47.51;99114.69;1630013;86;21247;-76
2022/06/17 00:29:18;;;;;;;1.82;1.20;;;;;;;17.82;47.47;99118.80;1633832;86;21414;-75
2022/06/17 00:31:46;;;;;;;1.72;1.30;;;;;;;17.83;47.46;99120.97;1687525;85;21575;-74
2022/06/17 00:34:12;;;;;;;1.42;1.22;;;;;;;17.83;47.41;99114.23;1628018;88;21619;-73
2022/06/17 00:36:40;;;;;;;1.20;1.05;;;;;;;17.83;47.35;99123.11;1686846;85;20991;-75
2022/06/17 00:39:18;;;;;;;5.00;1.40;;;;;;;17.84;47.35;99119.90;1609321;87;21332;-76
2022/06/17 00:41:48;;;;;;;3.67;1.00;;;;;;;17.84;47.38;99122.59;1683157;83;20974;-75
2022/06/17 00:44:32;;;;;;;1.72;1.62;;;;;;;17.83;47.37;99119.63;1655943;86;21014;-74
2022/06/17 00:47:04;;;;;;;3.60;1.20;;;;;;;17.81;47.42;99123.03;1610132;88;20963;-74
2022/06/17 00:49:49;;;;;;;1.10;1.00;;;;;;;17.81;47.42;99114.96;1609104;87;20900;-74
2022/06/17 00:52:27;;;;;;;1.17;1.07;;;;;;;17.80;47.45;99120.89;1627308;88;21342;-74
2022/06/17 00:55:01;;;;;;;3.00;1.25;;;;;;;17.82;47.36;99122.00;1687612;84;20927;-74
2022/06/17 00:57:35;;;;;;;4.72;1.42;;;;;;;17.83;47.33;99118.27;1628157;86;20986;-75
2022/06/17 01:00:24;;;;;;;3.00;1.40;;;;;;;17.83;47.34;99119.63;1686749;84;20967;-76
2022/06/17 01:02:55;;;;;;;4.10;1.35;;;;;;;17.81;47.40;99121.17;1627865;88;21075;-74
2022/06/17 01:05:27;;;;;;;3.20;1.42;;;;;;;17.79;47.48;99119.75;1687536;85;21136;-72
2022/06/17 01:08:02;;;;;;;2.50;1.30;;;;;;;17.76;47.56;99120.20;1628911;86;20911;-74
2022/06/17 01:10:30;;;;;;;1.80;1.43;;;;;;;17.73;47.61;99118.78;1683630;83;21092;-73
2022/06/17 01:13:02;;;;;;;2.25;1.42;;;;;;;17.72;47.70;99116.33;1683631;85;20955;-75
2022/06/17 01:15:33;;;;;;;1.30;1.17;;;;;;;17.70;47.73;99111.70;1683819;85;21492;-74
2022/06/17 01:18:00;;;;;;;1.92;1.20;;;;;;;17.69;47.79;99111.39;1682738;84;21201;-73
2022/06/17 01:20:30;;;;;;;3.58;1.40;;;;;;;17.67;47.83;99113.49;1670860;84;20995;-74
2022/06/17 01:23:00;;;;;;;2.12;1.22;;;;;;;17.66;47.90;99105.94;1683713;85;21003;-74
2022/06/17 01:25:34;;;;;;;1.57;1.22;;;;;;;17.63;47.99;99098.31;1683829;83;21453;-75
2022/06/17 01:28:05;;;;;;;1.70;1.20;;;;;;;17.61;48.08;99101.76;1660069;84;20943;-74
2022/06/17 01:30:36;;;;;;;1.70;1.50;;;;;;;17.56;48.25;99096.23;1630782;87;21252;-74
2022/06/17 01:33:23;;;;;;;2.33;1.50;;;;;;;17.53;48.42;99098.53;1688637;85;20926;-75
2022/06/17 01:36:17;;;;;;;1.90;1.40;;;;;;;17.50;48.58;99093.05;1689219;85;20963;-73
2022/06/17 01:38:47;;;;;;;2.85;1.62;;;;;;;17.45;48.85;99097.45;1692008;83;20963;-74
2022/06/17 01:41:14;;;;;;;2.15;1.92;;;;;;;17.40;49.13;99098.64;1682492;83;20907;-75
2022/06/17 01:43:58;;;;;;;2.67;1.50;;;;;;;17.38;49.36;99102.09;1673149;84;21257;-73
2022/06/17 01:46:37;;;;;;;1.85;1.75;;;;;;;17.34;49.39;99100.91;1682258;85;21023;-73
2022/06/17 01:49:15;;;;;;;1.40;1.30;;;;;;;17.31;49.53;99101.34;1683815;85;20975;-72
2022/06/17 01:51:47;;;;;;;3.05;1.60;;;;;;;17.26;49.99;99101.47;1663298;85;21036;-73
2022/06/17 01:54:19;;;;;;;2.12;1.50;;;;;;;17.18;50.33;99104.98;1681409;84;20890;-73
2022/06/17 01:56:47;;;;;;;1.60;1.50;;;;;;;17.12;50.53;99096.45;1659434;85;21269;-74
2022/06/17 01:59:22;;;;;;;4.75;1.60;;;;;;;17.06;50.66;99091.95;1683553;85;20892;-73
2022/06/17 02:01:52;;;;;;;4.70;1.80;;;;;;;17.04;50.73;99090.84;1682507;84;21081;-74
2022/06/17 02:04:23;;;;;;;1.77;1.67;;;;;;;17.00;50.77;99095.00;1683241;84;21002;-73
2022/06/17 02:07:10;;;;;;;3.15;1.57;;;;;;;17.00;50.76;99095.52;1683655;85;20966;-73
2022/06/17 02:09:37;;;;;;;2.17;1.60;;;;;;;17.02;50.74;99092.11;1675840;84;21263;-74
2022/06/17 02:12:08;;;;;;;3.77;1.57;;;;;;;17.06;50.63;99087.41;1669686;84;21007;-74
2022/06/17 02:14:35;;;;;;;1.87;1.60;;;;;;;17.11;50.51;99091.59;1633384;86;21449;-75
2022/06/17 02:17:21;;;;;;;3.58;1.77;;;;;;;17.17;50.37;99090.72;1689351;83;20951;-73
2022/06/17 02:19:58;;;;;;;1.75;1.27;;;;;;;17.22;50.37;99081.98;1686569;85;20995;-73
2022/06/17 02:22:26;;;;;;;1.62;1.52;;;;;;;17.25;50.37;99081.55;1628561;86;21228;-73
2022/06/17 02:25:03;;;;;;;3.92;2.20;;;;;;;17.27;50.48;99089.69;1633858;87;21470;-75
2022/06/17 02:27:32;;;;;;;3.77;1.47;;;;;;;17.31;50.42;99088.73;1663816;85;21529;-73
2022/06/17 02:29:59;;;;;;;1.52;1.20;;;;;;;17.34;50.40;99096.88;1627497;86;20987;-75
2022/06/17 02:32:26;;;;;;;4.08;1.60;;;;;;;17.36;50.85;99097.46;1682909;85;21061;-75
2022/06/17 02:35:18;;;;;;;2.05;1.67;;;;;;;17.36;51.32;99093.43;1627947;88;21281;-74
2022/06/17 02:37:44;;;;;;;2.87;1.77;;;;;;;17.33;51.80;99091.18;1687733;85;20939;-74
2022/06/17 02:40:16;;;;;;;2.33;1.85;;;;;;;17.28;52.43;99092.66;1627813;86;21007;-75
2022/06/17 02:42:43;;;;;;;1.80;1.70;;;;;;;17.20;52.88;99098.34;1668074;85;21025;-72
2022/06/17 02:45:14;;;;;;;2.25;1.80;;;;;;;17.18;52.70;99099.06;1627861;87;21124;-75
2022/06/17 02:47:42;;;;;;;5.15;2.20;;;;;;;17.19;52.44;99094.00;1687840;85;21434;-75
2022/06/17 02:50:14;;;;;;;2.62;1.62;;;;;;;17.22;52.63;99100.28;1686808;85;21551;-73
2022/06/17 02:52:41;;;;;;;5.65;2.22;;;;;;;17.24;52.76;99090.12;1628714;86;20884;-75
2022/06/17 02:55:32;;;;;;;4.37;1.70;;;;;;;17.26;53.28;99096.61;1629255;86;20973;-73
2022/06/17 02:58:19;;;;;;;2.60;1.50;;;;;;;17.22;53.13;99096.77;1687532;83;20999;-75
2022/06/17 03:00:46;;;;;;;3.60;2.00;;;;;;;17.18;52.91;99098.27;1593284;86;21271;-74
2022/06/17 03:03:15;;;;;;;2.83;1.75;;;;;;;17.15;52.90;99097.36;1635254;86;20952;-74
2022/06/17 03:05:44;;;;;;;3.98;1.80;;;;;;;17.21;52.95;99095.94;1687563;85;20907;-72
2022/06/17 03:08:29;;;;;;;5.65;2.35;;;;;;;17.24;53.01;99088.78;1627823;88;21008;-75
2022/06/17 03:10:57;;;;;;;3.10;1.92;;;;;;;17.29;53.13;99096.17;1687427;83;21466;-74
2022/06/17 03:13:52;;;;;;;6.42;1.95;;;;;;;17.34;53.26;99100.91;1632307;86;21284;-73
2022/06/17 03:16:19;;;;;;;7.72;2.27;;;;;;;17.39;53.25;99094.33;1687470;85;20963;-73
2022/06/17 03:18:47;;;;;;;2.77;2.12;;;;;;;17.39;53.36;99099.71;1627777;88;21142;-74
2022/06/17 03:21:16;;;;;;;6.50;2.45;;;;;;;17.42;53.05;99105.95;1709426;82;20950;-73
2022/06/17 03:24:22;;;;;;;3.52;2.92;;;;;;;17.47;52.73;99105.59;1663970;85;20902;-72
2022/06/17 03:26:58;;;;;;;4.53;2.20;;;;;;;17.51;52.49;99101.43;1628345;86;22012;-73
2022/06/17 03:29:25;;;;;;;5.50;2.58;;;;;;;17.56;52.23;99107.51;1625153;87;20984;-74
2022/06/17 03:32:00;;;;;;;3.42;2.20;;;;;;;17.60;52.08;99109.52;1626082;86;21451;-73
2022/06/17 03:34:36;;;;;;;3.83;2.30;;;;;;;17.62;51.88;99099.89;1662979;85;20951;-72
2022/06/17 03:37:11;;;;;;;3.25;2.20;;;;;;;17.62;51.88;99103.41;1632220;86;20968;-73
2022/06/17 03:39:46;;;;;;;5.62;2.35;;;;;;;17.63;51.78;99098.83;1688200;85;21151;-75
2022/06/17 03:42:23;;;;;;;4.42;2.30;;;;;;;17.63;51.88;99097.48;1615990;86;21529;-74
2022/06/17 03:45:04;;;;;;;6.67;2.85;;;;;;;17.63;52.04;99094.28;1685904;85;20912;-74
2022/06/17 03:47:49;;;;;;;5.10;2.85;;;;;;;17.64;52.27;99096.45;1602188;88;20935;-76
2022/06/17 03:50:28;;;;;;;3.02;2.70;;;;;;;17.62;52.60;99096.69;1687178;85;20928;-74
2022/06/17 03:53:00;;;;;;;5.08;2.77;;;;;;;17.63;52.86;99101.52;1631828;86;21369;-75
2022/06/17 03:55:27;;;;;;;6.90;2.77;;;;;;;17.64;53.24;99093.77;1668970;83;20994;-74
2022/06/17 03:57:57;;;;;;;5.00;2.95;;;;;;;17.68;53.57;99095.77;1687626;83;20903;-73
2022/06/17 04:00:45;;;;;;;3.62;2.83;;;;;;;17.70;53.85;99089.64;1685644;83;20927;-72
2022/06/17 04:03:18;;;;;;;4.70;2.92;;;;;;;17.69;54.22;99090.70;1686853;85;20899;-74
2022/06/17 04:05:44;;;;;;;4.10;3.00;;;;;;;17.62;54.68;99095.34;1663915;85;21218;-74
2022/06/17 04:08:13;;;;;;;3.55;2.80;;;;;;;17.56;55.02;99100.27;1687467;85;20899;-77
2022/06/17 04:10:43;;;;;;;7.72;3.00;;;;;;;17.49;55.43;99091.42;1697960;82;20954;-75
2022/06/17 04:13:18;;;;;;;4.95;2.80;;;;;;;17.45;55.76;99096.11;1666320;85;21016;-73
2022/06/17 04:16:29;;;;;;;3.62;2.90;;;;;;;17.39;56.16;99103.74;1646102;86;20995;-74
2022/06/17 04:19:05;;;;;;;6.62;2.85;;;;;;;17.36;56.56;99102.84;1612396;87;21162;-73
2022/06/17 04:21:34;;;;;;;6.47;3.60;;;;;;;17.36;56.96;99101.50;1676642;83;21459;-74
2022/06/17 04:24:00;;;;;;;3.33;3.02;;;;;;;17.41;57.24;99107.02;1663729;84;21031;-74
2022/06/17 04:26:33;;;;;;;3.85;3.25;;;;;;;17.46;57.57;99108.52;1664578;84;21008;-74
2022/06/17 04:29:05;;;;;;;4.58;2.72;;;;;;;17.53;57.90;99107.95;1667604;86;20977;-73
2022/06/17 04:31:34;;;;;;;4.35;2.80;;;;;;;17.60;58.06;99112.72;1667144;84;21891;-75
2022/06/17 04:34:13;;;;;;;5.03;3.42;;;;;;;17.68;58.27;99111.08;1699120;83;20897;-72
2022/06/17 04:36:50;;;;;;;5.62;3.27;;;;;;;17.75;58.48;99114.54;1667162;86;20931;-74
2022/06/17 04:39:38;;;;;;;4.50;3.08;;;;;;;17.83;58.57;99112.89;1667460;86;21011;-73
2022/06/17 04:42:16;;;;;;;4.03;3.62;;;;;;;17.93;58.70;99117.22;1654458;84;21549;-74
2022/06/17 04:44:45;;;;;;;6.90;3.40;;;;;;;18.00;58.70;99117.95;1662458;86;20903;-73
2022/06/17 04:47:14;;;;;;;3.98;3.20;;;;;;;18.07;58.94;99124.61;1667284;86;20943;-76
2022/06/17 04:49:59;;;;;;;5.95;3.30;;;;;;;18.13;58.89;99121.81;1667096;86;21063;-75
2022/06/17 04:52:41;;;;;;;3.30;2.98;;;;;;;18.18;58.93;99131.89;1653841;86;20934;-74
2022/06/17 04:55:32;;;;;;;7.78;3.72;;;;;;;18.20;59.02;99135.17;1662897;84;21002;-74
2022/06/17 04:58:18;;;;;;;10.88;4.20;;;;;;;18.17;59.13;99133.75;1638535;87;21548;-73
2022/06/17 05:00:48;;;;;;;5.20;3.83;;;;;;;18.11;59.45;99142.76;1700180;83;20952;-74
2022/06/17 05:03:17;;;;;;;5.42;3.77;;;;;;;18.08;59.86;99141.03;1708388;83;20970;-75
2022/06/17 05:05:48;;;;;;;3.72;3.35;;;;;;;18.08;60.18;99142.38;1665938;84;21576;-74
2022/06/17 05:08:30;;;;;;;5.50;3.67;;;;;;;18.08;60.44;99149.11;1667379;84;20918;-75
2022/06/17 05:11:30;;;;;;;4.00;3.05;;;;;;;18.05;60.71;99149.03;1661643;85;21498;-74
2022/06/17 05:14:12;;;;;;;7.12;3.52;;;;;;;18.02;61.25;99152.17;1659010;85;21010;-75
2022/06/17 05:16:39;;;;;;;4.03;3.62;;;;;;;18.06;61.97;99153.39;1658910;85;21556;-74
2022/06/17 05:19:07;;;;;;;3.75;3.45;;;;;;;18.10;62.54;99151.88;1659579;86;21006;-72
2022/06/17 05:21:36;;;;;;;3.72;3.42;;;;;;;18.14;63.08;99156.29;1659808;86;20900;-74
2022/06/17 05:24:05;;;;;;;4.15;3.58;;;;;;;18.18;63.59;99161.50;1657149;85;21899;-72
2022/06/17 05:26:32;;;;;;;3.77;3.35;;;;;;;18.22;64.08;99164.06;1659837;85;20944;-73
2022/06/17 05:28:59;;;;;;;4.40;3.50;;;;;;;18.26;64.36;99167.41;1659729;84;21007;-74
2022/06/17 05:31:28;;;;;;;6.87;6.25;;;;;;;18.25;64.60;99172.48;1659548;86;21062;-76
2022/06/17 05:33:56;;;;;;;5.12;4.72;;;;;;;18.23;64.86;99173.24;1681823;84;20900;-75
2022/06/17 05:36:23;;;;;;;4.92;4.53;;;;;;;18.20;65.25;99175.03;1683678;85;21631;-73
2022/06/17 05:38:50;;;;;;;4.62;4.05;;;;;;;18.19;65.61;99172.58;1683033;84;20906;-72
2022/06/17 05:41:20;;;;;;;3.37;3.08;;;;;;;18.21;65.94;99175.34;1681146;83;20977;-70
2022/06/17 05:43:49;;;;;;;4.62;3.60;;;;;;;18.21;66.15;99175.34;1685607;83;21019;-71
2022/06/17 05:46:18;;;;;;;4.22;3.83;;;;;;;18.23;66.50;99179.97;1681098;83;21539;-72
2022/06/17 05:48:46;;;;;;;3.30;3.08;;;;;;;18.24;66.82;99184.32;1680908;84;21149;-71
2022/06/17 05:51:33;;;;;;;4.30;3.17;;;;;;;18.25;66.90;99179.21;1633142;86;20980;-70
2022/06/17 05:54:10;;;;;;;3.75;3.33;;;;;;;18.25;67.03;99181.91;1621362;86;20970;-70
2022/06/17 05:56:39;;;;;;;3.52;3.25;;;;;;;18.27;67.19;99185.73;1670750;83;20983;-73
2022/06/17 05:59:06;;;;;;;3.72;3.42;;;;;;;18.25;67.30;99194.02;1698254;83;20907;-71
2022/06/17 06:01:33;;;;;;;4.50;3.87;;;;;;;18.20;67.43;99185.80;1675128;85;21255;-71
2022/06/17 06:03:59;;;;;;;3.98;3.55;;;;;;;18.17;67.58;99192.98;1682741;84;20949;-72
2022/06/17 06:06:26;;;;;;;2.95;2.70;;;;;;;18.16;67.79;99194.56;1682746;84;21145;-71
2022/06/17 06:08:55;;;;;;;3.77;3.42;;;;;;;18.14;68.11;99204.75;1675860;85;21461;-74
2022/06/17 06:11:23;;;;;;;3.05;2.75;;;;;;;18.13;68.39;99205.78;1683527;83;20983;-69
2022/06/17 06:13:49;;;;;;;4.10;3.52;;;;;;;18.13;68.56;99205.78;1682430;84;21194;-67
2022/06/17 06:16:16;;;;;;;5.12;3.00;;;;;;;18.11;68.81;99208.70;1681786;84;21024;-70
2022/06/17 06:18:47;;;;;;;4.78;3.42;;;;;;;18.11;69.00;99206.02;1674382;85;22149;-67
2022/06/17 06:21:19;;;;;;;3.87;3.58;;;;;;;18.09;69.12;99213.50;1682195;84;21070;-67
2022/06/17 06:23:46;;;;;;;3.62;3.33;;;;;;;18.07;69.16;99212.88;1681875;84;21070;-67
2022/06/17 06:26:20;;;;;;;4.15;3.75;;;;;;;18.03;69.46;99209.01;1674521;84;20995;-74
2022/06/17 06:28:49;;;;;;;4.22;3.83;;;;;;;18.04;69.72;99209.28;1682511;83;21536;-73
2022/06/17 06:31:25;;;;;;;4.72;4.22;;;;;;;18.04;69.82;99211.98;1674296;85;21034;-73
2022/06/17 06:33:52;;;;;;;6.75;5.50;;;;;;;18.09;70.23;99212.67;1682062;84;21063;-73
2022/06/17 06:36:19;;;;;;;7.47;6.22;;;;;;;18.11;70.18;99211.41;1682124;84;21035;-73
2022/06/17 06:38:45;;;;;;;8.13;7.17;;;;;;;18.13;70.16;99214.69;1681968;84;21246;-74
2022/06/17 06:41:12;;;;;;;9.23;6.75;;;;;;;18.15;70.18;99213.93;1682197;83;20943;-73
2022/06/17 06:43:40;;;;;;;12.15;7.30;;;;;;;18.21;70.43;99218.94;1682028;84;21626;-72
2022/06/17 06:46:16;;;;;;;11.97;8.68;;;;;;;18.26;70.65;99218.56;1669135;83;21077;-73
2022/06/17 06:48:45;;;;;;;14.13;9.90;;;;;;;18.34;70.71;99215.56;1682551;84;21127;-73
2022/06/17 06:51:11;;;;;;;12.40;9.03;;;;;;;18.39;70.33;99213.02;1682652;83;21230;-73
2022/06/17 06:53:38;;;;;;;15.18;9.35;;;;;;;18.41;69.85;99208.73;1679278;84;21010;-73
2022/06/17 06:56:05;;;;;;;22.05;9.65;;;;;;;18.44;69.67;99206.94;1682492;83;21046;-72
2022/06/17 06:58:31;;;;;;;19.62;8.85;;;;;;;18.48;69.55;99207.63;1660604;85;21004;-72
2022/06/17 07:01:00;;;;;;;12.33;6.80;;;;;;;18.52;69.25;99212.56;1681148;84;20948;-75
2022/06/17 07:03:28;;;;;;;6.22;5.08;;;;;;;18.52;69.19;99209.35;1659065;85;21071;-66
2022/06/17 07:06:01;;;;;;;6.40;5.70;;;;;;;18.56;69.14;99211.08;1682048;84;20919;-71
2022/06/17 07:08:34;;;;;;;6.10;5.50;;;;;;;18.52;69.03;99215.26;1682727;84;20944;-72
2022/06/17 07:11:00;;;;;;;16.85;6.30;;;;;;;18.54;68.99;99218.02;1683065;83;21047;-73
2022/06/17 07:13:28;;;;;;;7.08;5.67;;;;;;;18.60;69.19;99221.16;1682819;84;20939;-71
2022/06/17 07:15:56;;;;;;;6.10;5.50;;;;;;;18.63;69.41;99218.53;1682980;84;20913;-74
2022/06/17 07:18:29;;;;;;;5.58;5.00;;;;;;;18.63;69.26;99218.53;1686221;84;20920;-73
2022/06/17 07:20:59;;;;;;;6.53;4.25;;;;;;;18.64;69.36;99220.20;1684165;84;21535;-73
2022/06/17 07:23:32;;;;;;;4.42;3.77;;;;;;;18.65;69.15;99219.95;1681948;84;21011;-71
2022/06/17 07:25:59;;;;;;;5.33;3.50;;;;;;;18.67;69.23;99219.71;1682995;83;21002;-73
2022/06/17 07:28:27;;;;;;;3.42;3.08;;;;;;;18.71;68.98;99223.61;1688081;83;21273;-73
2022/06/17 07:30:55;;;;;;;4.90;3.08;;;;;;;18.70;68.77;99219.26;1687049;83;20939;-73
2022/06/17 07:33:25;;;;;;;5.15;3.02;;;;;;;18.65;68.88;99219.12;1681715;84;20919;-74
2022/06/17 07:35:55;;;;;;;3.40;3.08;;;;;;;18.63;68.85;99223.92;1680242;84;21580;-73
2022/06/17 07:41:11;;;;;;;2.65;2.45;;;;;;;18.59;69.25;99226.79;1682498;83;21330;-73
2022/06/17 07:43:38;;;;;;;3.60;2.83;;;;;;;18.59;69.49;99224.09;1683524;83;21563;-73
2022/06/17 07:46:05;;;;;;;3.22;2.77;;;;;;;18.59;69.74;99220.05;1683535;85;20896;-73
2022/06/17 07:48:32;;;;;;;3.22;2.47;;;;;;;18.58;70.01;99230.52;1683616;85;20876;-73
2022/06/17 07:50:59;;;;;;;2.70;2.50;;;;;;;18.62;70.10;99228.48;1683602;85;21011;-73
2022/06/17 07:53:27;;;;;;;3.47;2.33;;;;;;;18.64;70.10;99228.27;1686068;84;21926;-73
2022/06/17 07:55:54;;;;;;;2.30;2.10;;;;;;;18.66;70.19;99226.17;1689601;83;20855;-72
2022/06/17 07:58:20;;;;;;;2.47;2.27;;;;;;;18.72;70.15;99226.06;1688453;83;21011;-72
2022/06/17 08:00:47;;;;;;;2.90;2.35;;;;;;;18.80;70.01;99223.05;1683520;85;21129;-73
2022/06/17 08:03:16;;;;;;;4.50;2.40;;;;;;;18.89;69.79;99225.73;1683569;85;20952;-74
2022/06/17 08:05:53;;;;;;;2.70;2.50;;;;;;;18.97;69.50;99231.31;1680711;85;20931;-73
2022/06/17 08:08:22;;;;;;;2.80;2.12;;;;;;;19.05;69.36;99235.03;1683469;85;20975;-73
2022/06/17 08:10:53;;;;;;;2.83;2.12;;;;;;;19.07;69.10;99234.27;1683791;83;20951;-73
2022/06/17 08:13:21;;;;;;;3.47;2.20;;;;;;;19.05;69.02;99235.03;1683302;85;20931;-74
2022/06/17 08:15:53;;;;;;;2.22;2.10;;;;;;;19.09;69.05;99231.64;1683593;85;21011;-73
2022/06/17 08:18:21;;;;;;;2.40;2.12;;;;;;;19.17;68.92;99234.52;1683607;85;20947;-73
2022/06/17 08:20:48;;;;;;;1.80;1.70;;;;;;;19.25;68.69;99246.33;1683551;85;20974;-73
2022/06/17 08:23:14;;;;;;;2.00;1.90;;;;;;;19.28;68.39;99253.95;1683596;85;20872;-73
2022/06/17 08:25:42;;;;;;;3.60;2.00;;;;;;;19.32;68.24;99245.69;1691794;83;21023;-74
2022/06/17 08:28:10;;;;;;;2.58;2.10;;;;;;;19.35;67.86;99249.80;1670321;85;21528;-72
2022/06/17 08:30:41;;;;;;;2.55;2.20;;;;;;;19.40;67.54;99250.77;1677942;85;21148;-73
2022/06/17 08:33:07;;;;;;;1.67;1.57;;;;;;;19.46;67.62;99252.55;1683597;85;20931;-72
2022/06/17 08:35:40;;;;;;;2.30;2.10;;;;;;;19.51;67.29;99256.72;1683637;84;20916;-73
2022/06/17 08:38:23;;;;;;;1.67;1.57;;;;;;;19.51;66.60;99259.94;1683525;85;21433;-72
2022/06/17 08:40:57;;;;;;;2.37;1.60;;;;;;;19.45;66.12;99258.98;1683696;83;20956;-73
2022/06/17 08:43:58;;;;;;;1.82;1.72;;;;;;;19.44;66.09;99261.94;1664284;85;20963;-72
2022/06/17 08:46:31;;;;;;;3.35;2.33;;;;;;;19.46;66.54;99270.61;1692269;84;20917;-72
2022/06/17 08:49:12;;;;;;;2.77;2.42;;;;;;;19.49;66.91;99266.10;1683625;85;20993;-72
2022/06/17 08:51:57;;;;;;;2.47;2.27;;;;;;;19.50;66.43;99268.55;1683603;85;20955;-73
2022/06/17 08:55:16;;;;;;;3.17;2.47;;;;;;;19.53;66.60;99275.36;1683781;85;21066;-73
2022/06/17 08:58:04;;;;;;;3.58;2.30;;;;;;;19.54;66.67;99272.45;1682536;84;21455;-74
2022/06/17 09:01:01;;;;;;;2.72;2.30;;;;;;;19.58;66.92;99277.66;1663538;85;20999;-72
2022/06/17 09:04:09;;;;;;;2.70;2.50;;;;;;;19.62;67.08;99283.42;1620278;87;21003;-74
2022/06/17 09:06:59;;;;;;;3.00;2.22;;;;;;;19.71;67.79;99282.83;1681307;85;21446;-74
2022/06/17 09:09:53;;;;;;;2.20;2.00;;;;;;;19.82;68.06;99287.12;1683467;85;20923;-73
2022/06/17 09:12:54;;;;;;;2.20;1.77;;;;;;;19.97;67.04;99280.75;1683628;83;21284;-74
2022/06/17 09:15:43;;;;;;;6.03;2.05;;;;;;;20.13;65.70;99286.23;1660442;83;21020;-73
2022/06/17 09:18:28;;;;;;;2.92;2.17;;;;;;;20.39;65.17;99282.23;1683606;85;20919;-75
2022/06/17 09:21:06;;;;;;;2.62;1.92;;;;;;;20.91;64.46;99280.30;1683619;85;20967;-73
2022/06/17 09:23:36;;;;;;;2.42;1.50;;;;;;;21.61;62.56;99276.73;1662109;85;20888;-72
2022/06/17 09:26:04;;;;;;;2.25;1.75;;;;;;;22.13;60.04;99279.98;1642658;85;21266;-72
2022/06/17 09:28:36;;;;;;;1.72;1.55;;;;;;;22.70;57.98;99272.35;1660123;86;21011;-72
2022/06/17 09:31:08;;;;;;;1.75;1.65;;;;;;;23.33;56.10;99271.66;1659875;84;21011;-73
2022/06/17 09:33:55;;;;;;;1.77;1.67;;;;;;;24.07;54.13;99265.72;1659824;86;21494;-74
2022/06/17 09:36:38;;;;;;;1.62;1.47;;;;;;;25.94;48.59;99257.49;1665378;85;20948;-73
2022/06/17 09:39:25;;;;;;;1.55;1.42;;;;;;;25.94;48.59;99257.49;1664442;85;21325;-73
2022/06/17 09:41:58;;;;;;;1.80;1.27;;;;;;;27.03;44.39;99248.95;1674684;83;20991;-72
2022/06/17 09:44:32;;;;;;;3.17;1.45;;;;;;;28.07;42.56;99237.46;1672057;85;21563;-73
2022/06/17 09:47:16;;;;;;;1.40;1.30;;;;;;;28.57;41.51;99235.50;1683839;85;21509;-72
2022/06/17 09:49:48;;;;;;;2.25;1.57;;;;;;;29.26;40.80;99227.16;1683862;85;21044;-74
2022/06/17 09:52:28;;;;;;;2.05;1.22;;;;;;;29.60;37.08;99225.50;1681508;85;21835;-73
2022/06/17 09:55:16;;;;;;;2.75;1.50;;;;;;;28.91;36.68;99220.29;1683325;85;20974;-73
2022/06/17 09:57:47;;;;;;;1.75;1.30;;;;;;;28.13;37.82;99225.38;1680910;83;20982;-72
2022/06/17 10:00:17;;;;;;;1.95;1.50;;;;;;;27.77;38.41;99228.16;1683670;85;20992;-73
2022/06/17 10:02:55;;;;;;;2.45;1.40;;;;;;;27.74;38.27;99236.38;1683776;85;20881;-72
2022/06/17 10:05:32;;;;;;;1.65;1.32;;;;;;;27.56;37.41;99233.00;1683485;83;21137;-73
2022/06/17 10:08:26;;;;;;;2.17;1.60;;;;;;;27.30;38.05;99237.00;1683603;85;20951;-73
2022/06/17 10:11:34;;;;;;;1.75;1.60;;;;;;;27.02;38.47;99241.31;1666662;83;20943;-73
2022/06/17 10:14:45;;;;;;;1.75;1.37;;;;;;;26.76;38.74;99241.98;1683725;85;21509;-72
2022/06/17 10:21:09;;;;;;;1.30;1.02;;;;;;;26.46;39.69;99246.77;1683685;85;21227;-72
2022/06/17 10:23:52;;;;;;;1.10;1.00;;;;;;;26.28;38.63;99251.72;1683753;83;20888;-74
2022/06/17 10:27:01;;;;;;;0.90;0.90;;;;;;;26.12;38.01;99250.66;1683869;83;21600;-71
2022/06/17 10:29:48;;;;;;;0.80;0.80;;;;;;;26.11;38.73;99253.93;1664867;85;20927;-73
2022/06/17 10:32:14;;;;;;;2.05;1.00;;;;;;;26.08;38.58;99248.20;1683797;85;20961;-73
2022/06/17 10:34:49;;;;;;;1.10;1.00;;;;;;;26.00;38.11;99255.04;1683717;85;21270;-73
2022/06/17 10:37:15;;;;;;;3.05;1.40;;;;;;;25.83;37.54;99246.36;1683510;85;20943;-73
2022/06/17 10:39:43;;;;;;;1.27;1.17;;;;;;;25.65;38.71;99246.93;1683742;85;20983;-73
2022/06/17 10:42:15;;;;;;;1.05;0.95;;;;;;;25.61;39.05;99243.92;1683674;83;21020;-73
2022/06/17 10:44:46;;;;;;;1.72;1.02;;;;;;;25.55;38.85;99250.45;1683733;85;20936;-73
2022/06/17 10:47:30;;;;;;;2.15;0.93;;;;;;;25.46;39.14;99242.58;1683051;85;21164;-72
2022/06/17 10:50:06;;;;;;;1.12;0.90;;;;;;;25.40;38.43;99240.90;1683664;83;20920;-72
2022/06/17 10:52:40;;;;;;;1.92;0.82;;;;;;;25.44;38.17;99234.38;1683780;85;20915;-73
2022/06/17 10:55:19;;;;;;;1.95;1.20;;;;;;;25.61;37.58;99241.73;1683960;85;21061;-72
2022/06/17 10:58:17;;;;;;;1.30;0.98;;;;;;;25.86;37.41;99245.00;1681396;83;20943;-72
2022/06/17 11:01:07;;;;;;;1.25;1.00;;;;;;;26.10;37.13;99239.20;1667260;85;20931;-73
2022/06/17 11:03:40;;;;;;;0.80;0.80;;;;;;;26.19;36.67;99235.68;1683663;85;20959;-74
2022/06/17 11:06:19;;;;;;;0.72;0.72;;;;;;;26.21;36.85;99241.66;1683602;85;21030;-73
2022/06/17 11:08:56;;;;;;;1.10;0.78;;;;;;;26.15;36.60;99238.67;1683101;83;20931;-71
2022/06/17 11:12:03;;;;;;;0.78;0.70;;;;;;;25.95;36.54;99242.78;1682782;83;20916;-73
2022/06/17 11:14:45;;;;;;;0.80;0.80;;;;;;;25.83;36.26;99245.54;1655663;86;21177;-73
2022/06/17 11:17:34;;;;;;;0.82;0.80;;;;;;;25.67;36.94;99237.94;1626767;88;21597;-73
2022/06/17 11:20:06;;;;;;;0.88;0.88;;;;;;;25.41;36.89;99233.55;1687634;85;20955;-72
2022/06/17 11:22:38;;;;;;;1.85;1.00;;;;;;;25.24;37.38;99229.72;1626119;88;21129;-73
2022/06/17 11:25:27;;;;;;;1.45;1.35;;;;;;;25.26;37.23;99225.39;1687684;85;20907;-73
2022/06/17 11:28:11;;;;;;;1.20;1.10;;;;;;;25.29;37.10;99225.64;1628023;86;21278;-72
2022/06/17 11:30:54;;;;;;;1.10;1.00;;;;;;;25.34;36.54;99233.81;1687507;84;21418;-72
2022/06/17 11:33:32;;;;;;;2.00;0.70;;;;;;;25.46;36.72;99237.13;1627370;88;20936;-73
2022/06/17 11:36:16;;;;;;;0.90;0.70;;;;;;;25.53;36.98;99228.12;1687096;85;21528;-73
2022/06/17 11:38:45;;;;;;;1.32;1.00;;;;;;;25.53;36.77;99233.58;1656186;86;21425;-72
2022/06/17 11:41:32;;;;;;;1.10;1.00;;;;;;;25.51;37.22;99230.31;1626195;88;21275;-74
2022/06/17 11:44:12;;;;;;;1.27;0.90;;;;;;;25.40;37.51;99230.01;1614935;88;20927;-74
2022/06/17 11:47:00;;;;;;;1.17;1.00;;;;;;;25.13;37.42;99224.02;1687537;85;21050;-74
2022/06/17 11:49:34;;;;;;;2.87;2.67;;;;;;;24.84;38.09;99225.06;1656032;86;20967;-73
2022/06/17 11:52:08;;;;;;;1.60;1.50;;;;;;;24.89;38.70;99226.43;1610155;88;20975;-73
2022/06/17 11:54:37;;;;;;;2.20;1.02;;;;;;;24.97;38.18;99218.28;1687660;84;21822;-73
2022/06/17 11:57:18;;;;;;;2.65;1.52;;;;;;;25.04;37.92;99217.47;1628089;86;21486;-72
2022/06/17 11:59:49;;;;;;;1.45;1.10;;;;;;;25.15;37.93;99215.86;1687721;84;20907;-73
2022/06/17 12:02:15;;;;;;;1.65;0.90;;;;;;;25.23;38.30;99210.41;1610169;88;20968;-75
2022/06/17 12:04:55;;;;;;;1.20;1.10;;;;;;;25.31;38.19;99207.69;1687538;85;20911;-73
2022/06/17 12:07:36;;;;;;;2.12;1.30;;;;;;;25.43;37.49;99203.59;1687509;85;21140;-73
2022/06/17 12:10:25;;;;;;;3.37;1.10;;;;;;;25.59;37.38;99207.98;1627226;88;20940;-73
2022/06/17 12:12:55;;;;;;;0.98;0.90;;;;;;;25.60;36.99;99208.80;1673308;85;20919;-72
2022/06/17 12:15:40;;;;;;;1.20;1.10;;;;;;;25.39;36.88;99205.25;1627738;87;20928;-72
2022/06/17 12:18:17;;;;;;;1.25;0.95;;;;;;;25.30;37.18;99207.41;1687665;85;20880;-73